CheckWX is a tool to help pilots better visualize weather data.  It is not intended as a substitute for an official pre-flight weather briefing.

18:36:37 UTC

CYKO METAR
Akulivik Airport
Akulivik, Canada
Current

37 mins ago

CYKO 221800Z 28010G16KT 8SM FEW018 M23/M26 A3000 RMK SC1 SLP165
Observed
Feb-22 @ 18:00 UTC
Wind
  • 280° at 10 KTS
  • Gusting to KTS
Visibility
8 SM
Flight Rules
VFR
Cloud Levels
  • Few at 1,800' AGL
Temperature
-23°C / -9°F
Dewpoint
-26°C / -15°F
Humidity
77%
Altimeter
30" Hg
Pressure
1016.5 hPa
Previous

2 hours ago

CYKO 221700Z 26010KT 6SM HZ FEW015 M23/M26 A3000 RMK SC2 SLP164
Observed
Feb-22 @ 17:00 UTC
Wind
  • 260° at 10 KTS
Visibility
6 SM
Flight Rules
VFR
Conditions
Haze
Cloud Levels
  • Few at 1,500' AGL
Temperature
-23°C / -9°F
Dewpoint
-26°C / -15°F
Humidity
77%
Altimeter
30" Hg
Pressure
1016.4 hPa
Previous

3 hours ago

CYKO 221600Z 26009KT 8SM HZ FEW020 M23/M26 A2999 RMK SC1 SLP161
Observed
Feb-22 @ 16:00 UTC
Wind
  • 260° at 9 KTS
Visibility
8 SM
Flight Rules
VFR
Conditions
Haze
Cloud Levels
  • Few at 2,000' AGL
Temperature
-23°C / -9°F
Dewpoint
-26°C / -15°F
Humidity
77%
Altimeter
29.99" Hg
Pressure
1016.1 hPa